sensor_id;sensor_type;location;lat;lon;timestamp;P1;durP1;ratioP1;P2;durP2;ratioP2
49900;SDS011;35789;48.414;12.768;2024-03-06T00:00:00;23.7;;;12.8;;
49900;SDS011;35789;48.414;12.768;2024-03-06T00:05:00;21.6;;;11.0;;
49900;SDS011;35789;48.414;12.768;2024-03-06T00:10:00;21.6;;;11.0;;
49900;SDS011;35789;48.414;12.768;2024-03-06T00:15:00;21.6;;;11.0;;
49900;SDS011;35789;48.414;12.768;2024-03-06T00:20:00;21.6;;;11.0;;
49900;SDS011;35789;48.414;12.768;2024-03-06T00:25:00;21.6;;;11.0;;
49900;SDS011;35789;48.414;12.768;2024-03-06T00:30:00;21.6;;;11.0;;
49900;SDS011;35789;48.414;12.768;2024-03-06T00:35:02;21.1;;;11.5;;
49900;SDS011;35789;48.414;12.768;2024-03-06T00:40:00;21.1;;;11.5;;
49900;SDS011;35789;48.414;12.768;2024-03-06T00:45:00;21.1;;;11.5;;
49900;SDS011;35789;48.414;12.768;2024-03-06T00:50:00;21.1;;;11.5;;
49900;SDS011;35789;48.414;12.768;2024-03-06T00:55:00;21.1;;;11.5;;
49900;SDS011;35789;48.414;12.768;2024-03-06T01:00:00;21.1;;;11.5;;
49900;SDS011;35789;48.414;12.768;2024-03-06T01:05:01;22.3;;;12.0;;
49900;SDS011;35789;48.414;12.768;2024-03-06T01:10:00;22.3;;;12.0;;
49900;SDS011;35789;48.414;12.768;2024-03-06T01:15:00;22.3;;;12.0;;
49900;SDS011;35789;48.414;12.768;2024-03-06T01:20:00;22.3;;;12.0;;
49900;SDS011;35789;48.414;12.768;2024-03-06T01:25:00;22.3;;;12.0;;
49900;SDS011;35789;48.414;12.768;2024-03-06T01:35:00;27.3;;;13.5;;
49900;SDS011;35789;48.414;12.768;2024-03-06T01:40:00;27.3;;;13.5;;
49900;SDS011;35789;48.414;12.768;2024-03-06T01:45:01;27.3;;;13.5;;
49900;SDS011;35789;48.414;12.768;2024-03-06T01:50:01;27.3;;;13.5;;
49900;SDS011;35789;48.414;12.768;2024-03-06T01:55:00;27.3;;;13.5;;
49900;SDS011;35789;48.414;12.768;2024-03-06T02:00:00;27.3;;;13.5;;
49900;SDS011;35789;48.414;12.768;2024-03-06T02:05:01;33.7;;;16.5;;
49900;SDS011;35789;48.414;12.768;2024-03-06T02:10:00;33.7;;;16.5;;
49900;SDS011;35789;48.414;12.768;2024-03-06T02:15:00;33.7;;;16.5;;
49900;SDS011;35789;48.414;12.768;2024-03-06T02:20:01;33.7;;;16.5;;
49900;SDS011;35789;48.414;12.768;2024-03-06T02:25:00;33.7;;;16.5;;
49900;SDS011;35789;48.414;12.768;2024-03-06T02:30:00;33.7;;;16.5;;
49900;SDS011;35789;48.414;12.768;2024-03-06T02:35:00;33.9;;;16.6;;
49900;SDS011;35789;48.414;12.768;2024-03-06T02:40:00;33.9;;;16.6;;
49900;SDS011;35789;48.414;12.768;2024-03-06T02:45:00;33.9;;;16.6;;
49900;SDS011;35789;48.414;12.768;2024-03-06T02:55:00;33.9;;;16.6;;
49900;SDS011;35789;48.414;12.768;2024-03-06T03:00:00;33.9;;;16.6;;
49900;SDS011;35789;48.414;12.768;2024-03-06T03:05:00;30.2;;;15.4;;
49900;SDS011;35789;48.414;12.768;2024-03-06T03:10:00;30.2;;;15.4;;
49900;SDS011;35789;48.414;12.768;2024-03-06T03:15:00;30.2;;;15.4;;
49900;SDS011;35789;48.414;12.768;2024-03-06T03:20:00;30.2;;;15.4;;
49900;SDS011;35789;48.414;12.768;2024-03-06T03:25:00;30.2;;;15.4;;
49900;SDS011;35789;48.414;12.768;2024-03-06T03:30:00;30.2;;;15.4;;
49900;SDS011;35789;48.414;12.768;2024-03-06T03:35:00;36.7;;;17.7;;
49900;SDS011;35789;48.414;12.768;2024-03-06T03:40:00;36.7;;;17.7;;
49900;SDS011;35789;48.414;12.768;2024-03-06T03:45:00;36.7;;;17.7;;
49900;SDS011;35789;48.414;12.768;2024-03-06T03:50:00;36.7;;;17.7;;
49900;SDS011;35789;48.414;12.768;2024-03-06T03:55:00;36.7;;;17.7;;
49900;SDS011;35789;48.414;12.768;2024-03-06T04:00:00;36.7;;;17.7;;
49900;SDS011;35789;48.414;12.768;2024-03-06T04:05:00;38.1;;;18.6;;
49900;SDS011;35789;48.414;12.768;2024-03-06T04:10:00;38.1;;;18.6;;
49900;SDS011;35789;48.414;12.768;2024-03-06T04:15:00;38.1;;;18.6;;
49900;SDS011;35789;48.414;12.768;2024-03-06T04:20:00;38.1;;;18.6;;
49900;SDS011;35789;48.414;12.768;2024-03-06T04:25:00;38.1;;;18.6;;
49900;SDS011;35789;48.414;12.768;2024-03-06T04:30:00;38.1;;;18.6;;
49900;SDS011;35789;48.414;12.768;2024-03-06T04:35:00;39.8;;;20.0;;
49900;SDS011;35789;48.414;12.768;2024-03-06T04:40:00;39.8;;;20.0;;
49900;SDS011;35789;48.414;12.768;2024-03-06T04:45:00;39.8;;;20.0;;
49900;SDS011;35789;48.414;12.768;2024-03-06T04:50:00;39.8;;;20.0;;
49900;SDS011;35789;48.414;12.768;2024-03-06T04:55:00;39.8;;;20.0;;
49900;SDS011;35789;48.414;12.768;2024-03-06T05:00:01;39.8;;;20.0;;
49900;SDS011;35789;48.414;12.768;2024-03-06T05:05:00;47.6;;;23.5;;
49900;SDS011;35789;48.414;12.768;2024-03-06T05:10:00;47.6;;;23.5;;
49900;SDS011;35789;48.414;12.768;2024-03-06T05:15:01;47.6;;;23.5;;
49900;SDS011;35789;48.414;12.768;2024-03-06T05:20:02;47.6;;;23.5;;
49900;SDS011;35789;48.414;12.768;2024-03-06T05:25:00;47.6;;;23.5;;
49900;SDS011;35789;48.414;12.768;2024-03-06T05:30:00;47.6;;;23.5;;
49900;SDS011;35789;48.414;12.768;2024-03-06T05:35:00;47.6;;;24.7;;
49900;SDS011;35789;48.414;12.768;2024-03-06T05:40:00;47.6;;;24.7;;
49900;SDS011;35789;48.414;12.768;2024-03-06T05:45:00;47.6;;;24.7;;
49900;SDS011;35789;48.414;12.768;2024-03-06T05:50:02;47.6;;;24.7;;
49900;SDS011;35789;48.414;12.768;2024-03-06T05:55:00;47.6;;;24.7;;
49900;SDS011;35789;48.414;12.768;2024-03-06T06:00:00;47.6;;;24.7;;
49900;SDS011;35789;48.414;12.768;2024-03-06T06:05:00;56.2;;;28.3;;
49900;SDS011;35789;48.414;12.768;2024-03-06T06:10:00;56.2;;;28.3;;
49900;SDS011;35789;48.414;12.768;2024-03-06T06:15:01;56.2;;;28.3;;
49900;SDS011;35789;48.414;12.768;2024-03-06T06:20:00;56.2;;;28.3;;
49900;SDS011;35789;48.414;12.768;2024-03-06T06:25:00;56.2;;;28.3;;
49900;SDS011;35789;48.414;12.768;2024-03-06T06:30:00;56.2;;;28.3;;
49900;SDS011;35789;48.414;12.768;2024-03-06T06:35:00;46.4;;;23.6;;
49900;SDS011;35789;48.414;12.768;2024-03-06T06:40:00;46.4;;;23.6;;
49900;SDS011;35789;48.414;12.768;2024-03-06T06:45:00;46.4;;;23.6;;
49900;SDS011;35789;48.414;12.768;2024-03-06T06:50:00;46.4;;;23.6;;
49900;SDS011;35789;48.414;12.768;2024-03-06T06:55:00;46.4;;;23.6;;
49900;SDS011;35789;48.414;12.768;2024-03-06T07:00:00;46.4;;;23.6;;
49900;SDS011;35789;48.414;12.768;2024-03-06T07:05:00;34.3;;;19.1;;
49900;SDS011;35789;48.414;12.768;2024-03-06T07:10:00;34.3;;;19.1;;
49900;SDS011;35789;48.414;12.768;2024-03-06T07:15:00;34.3;;;19.1;;
49900;SDS011;35789;48.414;12.768;2024-03-06T07:20:00;34.3;;;19.1;;
49900;SDS011;35789;48.414;12.768;2024-03-06T07:25:00;34.3;;;19.1;;
49900;SDS011;35789;48.414;12.768;2024-03-06T07:30:01;34.1;;;18.3;;
49900;SDS011;35789;48.414;12.768;2024-03-06T07:35:00;34.1;;;18.3;;
49900;SDS011;35789;48.414;12.768;2024-03-06T07:40:00;34.1;;;18.3;;
49900;SDS011;35789;48.414;12.768;2024-03-06T07:45:00;34.1;;;18.3;;
49900;SDS011;35789;48.414;12.768;2024-03-06T07:50:00;34.1;;;18.3;;
49900;SDS011;35789;48.414;12.768;2024-03-06T07:55:00;34.1;;;18.3;;
49900;SDS011;35789;48.414;12.768;2024-03-06T08:00:00;34.6;;;18.5;;
49900;SDS011;35789;48.414;12.768;2024-03-06T08:05:00;34.6;;;18.5;;
49900;SDS011;35789;48.414;12.768;2024-03-06T08:10:00;34.6;;;18.5;;
49900;SDS011;35789;48.414;12.768;2024-03-06T08:15:00;34.6;;;18.5;;
49900;SDS011;35789;48.414;12.768;2024-03-06T08:20:00;34.6;;;18.5;;
49900;SDS011;35789;48.414;12.768;2024-03-06T08:25:00;34.6;;;18.5;;
49900;SDS011;35789;48.414;12.768;2024-03-06T08:30:00;28.5;;;16.5;;
49900;SDS011;35789;48.414;12.768;2024-03-06T08:35:00;28.5;;;16.5;;
49900;SDS011;35789;48.414;12.768;2024-03-06T08:40:01;28.5;;;16.5;;
49900;SDS011;35789;48.414;12.768;2024-03-06T08:45:00;28.5;;;16.5;;
49900;SDS011;35789;48.414;12.768;2024-03-06T08:50:00;28.5;;;16.5;;
49900;SDS011;35789;48.414;12.768;2024-03-06T08:55:00;28.5;;;16.5;;
49900;SDS011;35789;48.414;12.768;2024-03-06T09:00:00;25.3;;;12.5;;
49900;SDS011;35789;48.414;12.768;2024-03-06T09:05:00;25.3;;;12.5;;
49900;SDS011;35789;48.414;12.768;2024-03-06T09:10:00;25.3;;;12.5;;
49900;SDS011;35789;48.414;12.768;2024-03-06T09:15:00;25.3;;;12.5;;
49900;SDS011;35789;48.414;12.768;2024-03-06T09:20:00;25.3;;;12.5;;
49900;SDS011;35789;48.414;12.768;2024-03-06T09:25:00;25.3;;;12.5;;
49900;SDS011;35789;48.414;12.768;2024-03-06T09:30:00;19.1;;;11.6;;
49900;SDS011;35789;48.414;12.768;2024-03-06T09:35:02;19.1;;;11.6;;
49900;SDS011;35789;48.414;12.768;2024-03-06T09:40:00;19.1;;;11.6;;
49900;SDS011;35789;48.414;12.768;2024-03-06T09:45:00;19.1;;;11.6;;
49900;SDS011;35789;48.414;12.768;2024-03-06T09:50:00;19.1;;;11.6;;
49900;SDS011;35789;48.414;12.768;2024-03-06T09:55:00;19.1;;;11.6;;
49900;SDS011;35789;48.414;12.768;2024-03-06T10:00:00;22.5;;;11.6;;
49900;SDS011;35789;48.414;12.768;2024-03-06T10:05:00;22.5;;;11.6;;
49900;SDS011;35789;48.414;12.768;2024-03-06T10:10:00;22.5;;;11.6;;
49900;SDS011;35789;48.414;12.768;2024-03-06T10:15:00;22.5;;;11.6;;
49900;SDS011;35789;48.414;12.768;2024-03-06T10:20:00;22.5;;;11.6;;
49900;SDS011;35789;48.414;12.768;2024-03-06T10:25:00;22.5;;;11.6;;
49900;SDS011;35789;48.414;12.768;2024-03-06T10:30:00;21.1;;;11.6;;
49900;SDS011;35789;48.414;12.768;2024-03-06T10:35:00;21.1;;;11.6;;
49900;SDS011;35789;48.414;12.768;2024-03-06T10:40:02;21.1;;;11.6;;
49900;SDS011;35789;48.414;12.768;2024-03-06T10:45:01;21.1;;;11.6;;
49900;SDS011;35789;48.414;12.768;2024-03-06T10:50:01;21.1;;;11.6;;
49900;SDS011;35789;48.414;12.768;2024-03-06T10:55:00;21.1;;;11.6;;
49900;SDS011;35789;48.414;12.768;2024-03-06T11:00:01;21.8;;;13.2;;
49900;SDS011;35789;48.414;12.768;2024-03-06T11:05:01;21.8;;;13.2;;
49900;SDS011;35789;48.414;12.768;2024-03-06T11:10:00;21.8;;;13.2;;
49900;SDS011;35789;48.414;12.768;2024-03-06T11:15:00;21.8;;;13.2;;
49900;SDS011;35789;48.414;12.768;2024-03-06T11:20:12;21.8;;;13.2;;
49900;SDS011;35789;48.414;12.768;2024-03-06T11:25:00;21.8;;;13.2;;
49900;SDS011;35789;48.414;12.768;2024-03-06T11:30:06;23.9;;;13.8;;
49900;SDS011;35789;48.414;12.768;2024-03-06T11:35:00;23.9;;;13.8;;
49900;SDS011;35789;48.414;12.768;2024-03-06T11:40:00;23.9;;;13.8;;
49900;SDS011;35789;48.414;12.768;2024-03-06T11:50:01;23.9;;;13.8;;
49900;SDS011;35789;48.414;12.768;2024-03-06T11:55:00;23.9;;;13.8;;
49900;SDS011;35789;48.414;12.768;2024-03-06T12:00:02;22.4;;;13.6;;
49900;SDS011;35789;48.414;12.768;2024-03-06T12:05:01;22.4;;;13.6;;
49900;SDS011;35789;48.414;12.768;2024-03-06T12:10:00;22.4;;;13.6;;
49900;SDS011;35789;48.414;12.768;2024-03-06T12:15:03;22.4;;;13.6;;
49900;SDS011;35789;48.414;12.768;2024-03-06T12:20:00;22.4;;;13.6;;
49900;SDS011;35789;48.414;12.768;2024-03-06T12:25:00;22.4;;;13.6;;
49900;SDS011;35789;48.414;12.768;2024-03-06T12:30:00;21.4;;;13.2;;
49900;SDS011;35789;48.414;12.768;2024-03-06T12:35:00;21.4;;;13.2;;
49900;SDS011;35789;48.414;12.768;2024-03-06T12:40:00;21.4;;;13.2;;
49900;SDS011;35789;48.414;12.768;2024-03-06T12:45:00;21.4;;;13.2;;
49900;SDS011;35789;48.414;12.768;2024-03-06T12:50:00;21.4;;;13.2;;
49900;SDS011;35789;48.414;12.768;2024-03-06T12:55:00;21.4;;;13.2;;
49900;SDS011;35789;48.414;12.768;2024-03-06T13:00:00;23.1;;;13.8;;
49900;SDS011;35789;48.414;12.768;2024-03-06T13:05:00;23.1;;;13.8;;
49900;SDS011;35789;48.414;12.768;2024-03-06T13:10:00;23.1;;;13.8;;
49900;SDS011;35789;48.414;12.768;2024-03-06T13:15:00;23.1;;;13.8;;
49900;SDS011;35789;48.414;12.768;2024-03-06T13:20:00;23.1;;;13.8;;
49900;SDS011;35789;48.414;12.768;2024-03-06T13:25:00;23.1;;;13.8;;
49900;SDS011;35789;48.414;12.768;2024-03-06T13:30:00;23.7;;;13.7;;
49900;SDS011;35789;48.414;12.768;2024-03-06T13:35:00;23.7;;;13.7;;
49900;SDS011;35789;48.414;12.768;2024-03-06T13:40:00;23.7;;;13.7;;
49900;SDS011;35789;48.414;12.768;2024-03-06T13:50:00;23.7;;;13.7;;
49900;SDS011;35789;48.414;12.768;2024-03-06T14:20:00;24.1;;;14.3;;
49900;SDS011;35789;48.414;12.768;2024-03-06T14:25:00;24.1;;;14.3;;
49900;SDS011;35789;48.414;12.768;2024-03-06T14:30:00;26.2;;;15.0;;
49900;SDS011;35789;48.414;12.768;2024-03-06T14:35:00;26.2;;;15.0;;
49900;SDS011;35789;48.414;12.768;2024-03-06T14:40:03;26.2;;;15.0;;
49900;SDS011;35789;48.414;12.768;2024-03-06T14:45:00;26.2;;;15.0;;
49900;SDS011;35789;48.414;12.768;2024-03-06T14:50:00;26.2;;;15.0;;
49900;SDS011;35789;48.414;12.768;2024-03-06T14:55:00;26.2;;;15.0;;
49900;SDS011;35789;48.414;12.768;2024-03-06T15:00:00;27.0;;;15.8;;
49900;SDS011;35789;48.414;12.768;2024-03-06T15:05:00;27.0;;;15.8;;
49900;SDS011;35789;48.414;12.768;2024-03-06T15:10:00;27.0;;;15.8;;
49900;SDS011;35789;48.414;12.768;2024-03-06T15:15:01;27.0;;;15.8;;
49900;SDS011;35789;48.414;12.768;2024-03-06T15:20:00;27.0;;;15.8;;
49900;SDS011;35789;48.414;12.768;2024-03-06T15:25:00;27.0;;;15.8;;
49900;SDS011;35789;48.414;12.768;2024-03-06T15:30:00;24.4;;;15.2;;
49900;SDS011;35789;48.414;12.768;2024-03-06T15:35:01;24.4;;;15.2;;
49900;SDS011;35789;48.414;12.768;2024-03-06T15:40:00;24.4;;;15.2;;
49900;SDS011;35789;48.414;12.768;2024-03-06T15:45:00;24.4;;;15.2;;
49900;SDS011;35789;48.414;12.768;2024-03-06T15:50:00;24.4;;;15.2;;
49900;SDS011;35789;48.414;12.768;2024-03-06T16:15:01;27.6;;;15.8;;
49900;SDS011;35789;48.414;12.768;2024-03-06T16:20:00;27.6;;;15.8;;
49900;SDS011;35789;48.414;12.768;2024-03-06T16:25:00;27.6;;;15.8;;
49900;SDS011;35789;48.414;12.768;2024-03-06T16:30:00;31.3;;;18.1;;
49900;SDS011;35789;48.414;12.768;2024-03-06T16:35:00;31.3;;;18.1;;
49900;SDS011;35789;48.414;12.768;2024-03-06T16:40:00;31.3;;;18.1;;
49900;SDS011;35789;48.414;12.768;2024-03-06T16:45:00;31.3;;;18.1;;
49900;SDS011;35789;48.414;12.768;2024-03-06T16:50:01;31.3;;;18.1;;
49900;SDS011;35789;48.414;12.768;2024-03-06T16:55:00;31.3;;;18.1;;
49900;SDS011;35789;48.414;12.768;2024-03-06T17:00:00;39.5;;;23.3;;
49900;SDS011;35789;48.414;12.768;2024-03-06T17:10:00;39.5;;;23.3;;
49900;SDS011;35789;48.414;12.768;2024-03-06T17:15:00;39.5;;;23.3;;
49900;SDS011;35789;48.414;12.768;2024-03-06T17:20:00;39.5;;;23.3;;
49900;SDS011;35789;48.414;12.768;2024-03-06T17:25:00;39.5;;;23.3;;
49900;SDS011;35789;48.414;12.768;2024-03-06T17:30:00;37.1;;;21.4;;
49900;SDS011;35789;48.414;12.768;2024-03-06T17:35:00;37.1;;;21.4;;
49900;SDS011;35789;48.414;12.768;2024-03-06T17:40:00;37.1;;;21.4;;
49900;SDS011;35789;48.414;12.768;2024-03-06T17:45:00;37.1;;;21.4;;
49900;SDS011;35789;48.414;12.768;2024-03-06T17:50:00;37.1;;;21.4;;
49900;SDS011;35789;48.414;12.768;2024-03-06T17:55:00;37.1;;;21.4;;
49900;SDS011;35789;48.414;12.768;2024-03-06T18:00:00;40.3;;;20.5;;
49900;SDS011;35789;48.414;12.768;2024-03-06T18:05:00;40.3;;;20.5;;
49900;SDS011;35789;48.414;12.768;2024-03-06T18:10:00;40.3;;;20.5;;
49900;SDS011;35789;48.414;12.768;2024-03-06T18:15:00;40.3;;;20.5;;
49900;SDS011;35789;48.414;12.768;2024-03-06T18:20:00;40.3;;;20.5;;
49900;SDS011;35789;48.414;12.768;2024-03-06T18:25:00;40.3;;;20.5;;
49900;SDS011;35789;48.414;12.768;2024-03-06T18:30:00;30.5;;;16.4;;
49900;SDS011;35789;48.414;12.768;2024-03-06T18:35:00;30.5;;;16.4;;
49900;SDS011;35789;48.414;12.768;2024-03-06T18:40:00;30.5;;;16.4;;
49900;SDS011;35789;48.414;12.768;2024-03-06T18:45:00;30.5;;;16.4;;
49900;SDS011;35789;48.414;12.768;2024-03-06T18:50:00;30.5;;;16.4;;
49900;SDS011;35789;48.414;12.768;2024-03-06T18:55:00;30.5;;;16.4;;
49900;SDS011;35789;48.414;12.768;2024-03-06T19:00:00;33.2;;;17.8;;
49900;SDS011;35789;48.414;12.768;2024-03-06T19:05:00;33.2;;;17.8;;
49900;SDS011;35789;48.414;12.768;2024-03-06T19:10:00;33.2;;;17.8;;
49900;SDS011;35789;48.414;12.768;2024-03-06T19:15:01;33.2;;;17.8;;
49900;SDS011;35789;48.414;12.768;2024-03-06T19:20:00;33.2;;;17.8;;
49900;SDS011;35789;48.414;12.768;2024-03-06T19:25:00;33.2;;;17.8;;
49900;SDS011;35789;48.414;12.768;2024-03-06T19:30:00;30.7;;;15.8;;
49900;SDS011;35789;48.414;12.768;2024-03-06T19:35:00;30.7;;;15.8;;
49900;SDS011;35789;48.414;12.768;2024-03-06T19:40:00;30.7;;;15.8;;
49900;SDS011;35789;48.414;12.768;2024-03-06T19:45:00;30.7;;;15.8;;
49900;SDS011;35789;48.414;12.768;2024-03-06T19:50:00;30.7;;;15.8;;
49900;SDS011;35789;48.414;12.768;2024-03-06T19:55:00;30.7;;;15.8;;
49900;SDS011;35789;48.414;12.768;2024-03-06T20:00:00;32.8;;;15.4;;
49900;SDS011;35789;48.414;12.768;2024-03-06T20:05:00;32.8;;;15.4;;
49900;SDS011;35789;48.414;12.768;2024-03-06T20:10:00;32.8;;;15.4;;
49900;SDS011;35789;48.414;12.768;2024-03-06T20:15:00;32.8;;;15.4;;
49900;SDS011;35789;48.414;12.768;2024-03-06T20:20:00;32.8;;;15.4;;
49900;SDS011;35789;48.414;12.768;2024-03-06T20:25:00;32.8;;;15.4;;
49900;SDS011;35789;48.414;12.768;2024-03-06T20:30:00;33.5;;;18.6;;
49900;SDS011;35789;48.414;12.768;2024-03-06T20:35:00;33.5;;;18.6;;
49900;SDS011;35789;48.414;12.768;2024-03-06T20:40:00;33.5;;;18.6;;
49900;SDS011;35789;48.414;12.768;2024-03-06T20:45:00;33.5;;;18.6;;
49900;SDS011;35789;48.414;12.768;2024-03-06T20:50:00;33.5;;;18.6;;
49900;SDS011;35789;48.414;12.768;2024-03-06T20:55:00;33.5;;;18.6;;
49900;SDS011;35789;48.414;12.768;2024-03-06T21:00:00;31.2;;;17.1;;
49900;SDS011;35789;48.414;12.768;2024-03-06T21:05:00;31.2;;;17.1;;
49900;SDS011;35789;48.414;12.768;2024-03-06T21:10:00;31.2;;;17.1;;
49900;SDS011;35789;48.414;12.768;2024-03-06T21:15:00;31.2;;;17.1;;
49900;SDS011;35789;48.414;12.768;2024-03-06T21:20:00;31.2;;;17.1;;
49900;SDS011;35789;48.414;12.768;2024-03-06T21:25:00;31.2;;;17.1;;
49900;SDS011;35789;48.414;12.768;2024-03-06T21:30:00;32.3;;;16.3;;
49900;SDS011;35789;48.414;12.768;2024-03-06T21:35:00;32.3;;;16.3;;
49900;SDS011;35789;48.414;12.768;2024-03-06T21:40:01;32.3;;;16.3;;
49900;SDS011;35789;48.414;12.768;2024-03-06T21:45:00;32.3;;;16.3;;
49900;SDS011;35789;48.414;12.768;2024-03-06T21:50:00;32.3;;;16.3;;
49900;SDS011;35789;48.414;12.768;2024-03-06T21:55:00;32.3;;;16.3;;
49900;SDS011;35789;48.414;12.768;2024-03-06T22:00:00;32.1;;;17.1;;
49900;SDS011;35789;48.414;12.768;2024-03-06T22:05:00;32.1;;;17.1;;
49900;SDS011;35789;48.414;12.768;2024-03-06T22:10:00;32.1;;;17.1;;
49900;SDS011;35789;48.414;12.768;2024-03-06T22:15:01;32.1;;;17.1;;
49900;SDS011;35789;48.414;12.768;2024-03-06T22:20:00;32.1;;;17.1;;
49900;SDS011;35789;48.414;12.768;2024-03-06T22:25:00;32.1;;;17.1;;
49900;SDS011;35789;48.414;12.768;2024-03-06T22:30:02;36.4;;;18.1;;
49900;SDS011;35789;48.414;12.768;2024-03-06T22:35:08;36.4;;;18.1;;
49900;SDS011;35789;48.414;12.768;2024-03-06T22:45:00;36.4;;;18.1;;
49900;SDS011;35789;48.414;12.768;2024-03-06T22:50:00;36.4;;;18.1;;
49900;SDS011;35789;48.414;12.768;2024-03-06T22:55:00;36.4;;;18.1;;
49900;SDS011;35789;48.414;12.768;2024-03-06T23:00:00;32.0;;;17.7;;
49900;SDS011;35789;48.414;12.768;2024-03-06T23:05:00;32.0;;;17.7;;
49900;SDS011;35789;48.414;12.768;2024-03-06T23:10:00;32.0;;;17.7;;
49900;SDS011;35789;48.414;12.768;2024-03-06T23:15:00;32.0;;;17.7;;
49900;SDS011;35789;48.414;12.768;2024-03-06T23:20:00;32.0;;;17.7;;
49900;SDS011;35789;48.414;12.768;2024-03-06T23:25:00;34.2;;;16.8;;
49900;SDS011;35789;48.414;12.768;2024-03-06T23:30:00;34.2;;;16.8;;
49900;SDS011;35789;48.414;12.768;2024-03-06T23:35:00;34.2;;;16.8;;
49900;SDS011;35789;48.414;12.768;2024-03-06T23:40:02;34.2;;;16.8;;
49900;SDS011;35789;48.414;12.768;2024-03-06T23:45:00;34.2;;;16.8;;
49900;SDS011;35789;48.414;12.768;2024-03-06T23:50:00;34.2;;;16.8;;
49900;SDS011;35789;48.414;12.768;2024-03-06T23:55:00;32.1;;;16.4;;
